sensor_id;sensor_type;location;lat;lon;timestamp;temperature;humidity
53695;DHT22;39588;51.124;7.190;2023-05-10T00:01:15;12.90;99.90
53695;DHT22;39588;51.124;7.190;2023-05-10T00:03:49;12.90;99.90
53695;DHT22;39588;51.124;7.190;2023-05-10T00:06:23;12.90;99.90
53695;DHT22;39588;51.124;7.190;2023-05-10T00:11:14;12.80;99.90
53695;DHT22;39588;51.124;7.190;2023-05-10T00:16:08;12.90;99.90
53695;DHT22;39588;51.124;7.190;2023-05-10T00:21:10;12.90;99.90
53695;DHT22;39588;51.124;7.190;2023-05-10T00:23:47;13.00;99.90
53695;DHT22;39588;51.124;7.190;2023-05-10T00:33:41;12.90;99.90
53695;DHT22;39588;51.124;7.190;2023-05-10T00:36:08;12.90;99.90
53695;DHT22;39588;51.124;7.190;2023-05-10T00:43:26;13.00;99.90
53695;DHT22;39588;51.124;7.190;2023-05-10T00:45:52;13.00;99.90
53695;DHT22;39588;51.124;7.190;2023-05-10T00:50:44;13.00;99.90
53695;DHT22;39588;51.124;7.190;2023-05-10T00:55:37;13.00;99.90
53695;DHT22;39588;51.124;7.190;2023-05-10T00:58:03;13.00;99.90
53695;DHT22;39588;51.124;7.190;2023-05-10T01:00:29;13.10;99.90
53695;DHT22;39588;51.124;7.190;2023-05-10T01:02:55;13.10;99.90
53695;DHT22;39588;51.124;7.190;2023-05-10T01:05:20;13.10;99.90
53695;DHT22;39588;51.124;7.190;2023-05-10T01:10:12;13.10;99.90
53695;DHT22;39588;51.124;7.190;2023-05-10T01:12:40;13.10;99.90
53695;DHT22;39588;51.124;7.190;2023-05-10T01:15:09;13.10;99.90
53695;DHT22;39588;51.124;7.190;2023-05-10T01:17:38;13.10;99.90
53695;DHT22;39588;51.124;7.190;2023-05-10T01:20:06;13.10;99.90
53695;DHT22;39588;51.124;7.190;2023-05-10T01:37:13;12.90;99.90
53695;DHT22;39588;51.124;7.190;2023-05-10T01:39:46;12.90;99.90
53695;DHT22;39588;51.124;7.190;2023-05-10T01:42:17;13.00;99.90
53695;DHT22;39588;51.124;7.190;2023-05-10T01:45:02;13.00;99.90
53695;DHT22;39588;51.124;7.190;2023-05-10T01:47:38;13.00;99.90
53695;DHT22;39588;51.124;7.190;2023-05-10T01:50:10;13.00;99.90
53695;DHT22;39588;51.124;7.190;2023-05-10T01:52:46;13.00;99.90
53695;DHT22;39588;51.124;7.190;2023-05-10T01:55:16;13.10;99.90
53695;DHT22;39588;51.124;7.190;2023-05-10T01:57:44;13.10;99.90
53695;DHT22;39588;51.124;7.190;2023-05-10T02:00:12;13.10;99.90
53695;DHT22;39588;51.124;7.190;2023-05-10T02:02:40;13.10;99.90
53695;DHT22;39588;51.124;7.190;2023-05-10T02:05:08;13.10;99.90
53695;DHT22;39588;51.124;7.190;2023-05-10T02:07:35;13.10;99.90
53695;DHT22;39588;51.124;7.190;2023-05-10T02:10:06;13.10;99.90
53695;DHT22;39588;51.124;7.190;2023-05-10T02:12:36;13.10;99.90
53695;DHT22;39588;51.124;7.190;2023-05-10T02:15:05;13.00;99.90
53695;DHT22;39588;51.124;7.190;2023-05-10T02:17:35;13.00;99.90
53695;DHT22;39588;51.124;7.190;2023-05-10T02:20:03;12.90;99.90
53695;DHT22;39588;51.124;7.190;2023-05-10T02:22:31;12.80;99.90
53695;DHT22;39588;51.124;7.190;2023-05-10T02:24:58;12.70;99.90
53695;DHT22;39588;51.124;7.190;2023-05-10T02:27:25;12.80;99.90
53695;DHT22;39588;51.124;7.190;2023-05-10T02:29:53;12.70;99.90
53695;DHT22;39588;51.124;7.190;2023-05-10T02:32:21;12.70;99.90
53695;DHT22;39588;51.124;7.190;2023-05-10T02:34:48;12.70;99.90
53695;DHT22;39588;51.124;7.190;2023-05-10T02:37:19;12.60;99.90
53695;DHT22;39588;51.124;7.190;2023-05-10T02:39:49;12.60;99.90
53695;DHT22;39588;51.124;7.190;2023-05-10T02:42:19;12.50;99.90
53695;DHT22;39588;51.124;7.190;2023-05-10T02:44:48;12.50;99.90
53695;DHT22;39588;51.124;7.190;2023-05-10T02:47:16;12.50;99.90
53695;DHT22;39588;51.124;7.190;2023-05-10T02:49:42;12.50;99.90
53695;DHT22;39588;51.124;7.190;2023-05-10T02:52:08;12.50;99.90
53695;DHT22;39588;51.124;7.190;2023-05-10T02:54:43;12.50;99.90
53695;DHT22;39588;51.124;7.190;2023-05-10T02:57:16;12.50;99.90
53695;DHT22;39588;51.124;7.190;2023-05-10T02:59:44;12.50;99.90
53695;DHT22;39588;51.124;7.190;2023-05-10T03:02:12;12.50;99.90
53695;DHT22;39588;51.124;7.190;2023-05-10T03:04:38;12.50;99.90
53695;DHT22;39588;51.124;7.190;2023-05-10T03:09:30;12.50;99.90
53695;DHT22;39588;51.124;7.190;2023-05-10T03:12:23;12.50;99.90
53695;DHT22;39588;51.124;7.190;2023-05-10T03:15:06;12.50;99.90
53695;DHT22;39588;51.124;7.190;2023-05-10T03:18:06;12.50;99.90
53695;DHT22;39588;51.124;7.190;2023-05-10T03:20:41;12.50;99.90
53695;DHT22;39588;51.124;7.190;2023-05-10T03:23:13;12.50;99.90
53695;DHT22;39588;51.124;7.190;2023-05-10T03:25:48;12.60;99.90
53695;DHT22;39588;51.124;7.190;2023-05-10T03:28:15;12.50;99.90
53695;DHT22;39588;51.124;7.190;2023-05-10T03:30:42;12.50;99.90
53695;DHT22;39588;51.124;7.190;2023-05-10T03:33:08;12.50;99.90
53695;DHT22;39588;51.124;7.190;2023-05-10T03:35:34;12.60;99.90
53695;DHT22;39588;51.124;7.190;2023-05-10T03:38:00;12.60;99.90
53695;DHT22;39588;51.124;7.190;2023-05-10T03:40:26;12.60;99.90
53695;DHT22;39588;51.124;7.190;2023-05-10T03:42:54;12.60;99.90
53695;DHT22;39588;51.124;7.190;2023-05-10T03:45:20;12.60;99.90
53695;DHT22;39588;51.124;7.190;2023-05-10T03:50:12;12.60;99.90
53695;DHT22;39588;51.124;7.190;2023-05-10T03:52:37;12.60;99.90
53695;DHT22;39588;51.124;7.190;2023-05-10T03:55:05;12.60;99.90
53695;DHT22;39588;51.124;7.190;2023-05-10T03:57:31;12.60;99.90
53695;DHT22;39588;51.124;7.190;2023-05-10T04:02:22;12.60;99.90
53695;DHT22;39588;51.124;7.190;2023-05-10T04:04:48;12.60;99.90
53695;DHT22;39588;51.124;7.190;2023-05-10T04:12:06;12.70;99.90
53695;DHT22;39588;51.124;7.190;2023-05-10T04:24:15;12.90;99.90
53695;DHT22;39588;51.124;7.190;2023-05-10T04:26:41;12.90;99.90
53695;DHT22;39588;51.124;7.190;2023-05-10T04:29:07;13.00;99.90
53695;DHT22;39588;51.124;7.190;2023-05-10T04:31:32;13.00;99.90
53695;DHT22;39588;51.124;7.190;2023-05-10T04:36:25;12.90;99.90
53695;DHT22;39588;51.124;7.190;2023-05-10T04:46:08;12.90;99.90
53695;DHT22;39588;51.124;7.190;2023-05-10T04:53:26;12.80;99.90
53695;DHT22;39588;51.124;7.190;2023-05-10T04:55:52;12.80;99.90
53695;DHT22;39588;51.124;7.190;2023-05-10T04:58:17;12.90;99.90
53695;DHT22;39588;51.124;7.190;2023-05-10T05:03:09;12.80;99.90
53695;DHT22;39588;51.124;7.190;2023-05-10T05:05:36;12.80;99.90
53695;DHT22;39588;51.124;7.190;2023-05-10T05:10:28;12.90;99.90
53695;DHT22;39588;51.124;7.190;2023-05-10T05:15:20;13.00;99.90
53695;DHT22;39588;51.124;7.190;2023-05-10T05:20:12;13.10;99.90
53695;DHT22;39588;51.124;7.190;2023-05-10T05:22:38;13.00;99.90
53695;DHT22;39588;51.124;7.190;2023-05-10T05:25:04;13.00;99.90
53695;DHT22;39588;51.124;7.190;2023-05-10T05:27:31;13.00;99.90
53695;DHT22;39588;51.124;7.190;2023-05-10T05:29:57;13.00;99.90
53695;DHT22;39588;51.124;7.190;2023-05-10T05:32:23;13.00;99.90
53695;DHT22;39588;51.124;7.190;2023-05-10T05:37:17;13.10;99.90
53695;DHT22;39588;51.124;7.190;2023-05-10T05:39:43;13.10;99.90
53695;DHT22;39588;51.124;7.190;2023-05-10T05:42:09;13.00;99.90
53695;DHT22;39588;51.124;7.190;2023-05-10T05:44:35;13.00;99.90
53695;DHT22;39588;51.124;7.190;2023-05-10T05:49:27;13.00;99.90
53695;DHT22;39588;51.124;7.190;2023-05-10T05:54:19;13.10;99.90
53695;DHT22;39588;51.124;7.190;2023-05-10T05:59:11;13.50;99.90
53695;DHT22;39588;51.124;7.190;2023-05-10T06:04:04;13.60;99.90
53695;DHT22;39588;51.124;7.190;2023-05-10T06:06:30;13.50;99.90
53695;DHT22;39588;51.124;7.190;2023-05-10T06:43:02;13.60;99.90
53695;DHT22;39588;51.124;7.190;2023-05-10T06:45:27;13.60;99.90
53695;DHT22;39588;51.124;7.190;2023-05-10T06:47:53;13.60;99.90
53695;DHT22;39588;51.124;7.190;2023-05-10T06:50:19;13.70;99.90
53695;DHT22;39588;51.124;7.190;2023-05-10T06:55:12;13.60;99.90
53695;DHT22;39588;51.124;7.190;2023-05-10T07:00:04;13.70;99.90
53695;DHT22;39588;51.124;7.190;2023-05-10T07:02:30;13.70;99.90
53695;DHT22;39588;51.124;7.190;2023-05-10T07:05:18;13.70;99.90
53695;DHT22;39588;51.124;7.190;2023-05-10T07:08:26;13.80;99.90
53695;DHT22;39588;51.124;7.190;2023-05-10T07:11:02;13.90;99.90
53695;DHT22;39588;51.124;7.190;2023-05-10T07:13:48;14.00;99.90
53695;DHT22;39588;51.124;7.190;2023-05-10T07:21:24;14.00;99.90
53695;DHT22;39588;51.124;7.190;2023-05-10T07:23:57;14.10;99.90
53695;DHT22;39588;51.124;7.190;2023-05-10T07:27:29;14.00;99.90
53695;DHT22;39588;51.124;7.190;2023-05-10T07:29:55;13.80;99.90
53695;DHT22;39588;51.124;7.190;2023-05-10T07:32:26;13.80;99.90
53695;DHT22;39588;51.124;7.190;2023-05-10T07:34:53;13.80;99.90
53695;DHT22;39588;51.124;7.190;2023-05-10T07:37:28;13.80;99.90
53695;DHT22;39588;51.124;7.190;2023-05-10T07:42:21;13.70;99.90
53695;DHT22;39588;51.124;7.190;2023-05-10T07:52:05;13.90;99.90
53695;DHT22;39588;51.124;7.190;2023-05-10T08:06:41;14.30;99.90
53695;DHT22;39588;51.124;7.190;2023-05-10T08:26:09;15.30;99.90
53695;DHT22;39588;51.124;7.190;2023-05-10T08:28:35;15.30;99.90
53695;DHT22;39588;51.124;7.190;2023-05-10T08:31:00;15.40;99.90
53695;DHT22;39588;51.124;7.190;2023-05-10T08:35:52;15.70;99.90
53695;DHT22;39588;51.124;7.190;2023-05-10T08:40:44;15.50;99.90
53695;DHT22;39588;51.124;7.190;2023-05-10T08:43:12;15.50;99.90
53695;DHT22;39588;51.124;7.190;2023-05-10T08:45:40;15.90;99.90
53695;DHT22;39588;51.124;7.190;2023-05-10T08:48:08;15.50;99.90
53695;DHT22;39588;51.124;7.190;2023-05-10T08:50:36;15.50;99.90
53695;DHT22;39588;51.124;7.190;2023-05-10T08:53:05;15.60;99.90
53695;DHT22;39588;51.124;7.190;2023-05-10T08:55:32;15.90;99.90
53695;DHT22;39588;51.124;7.190;2023-05-10T08:58:02;16.10;99.90
53695;DHT22;39588;51.124;7.190;2023-05-10T09:00:29;16.20;99.90
53695;DHT22;39588;51.124;7.190;2023-05-10T09:02:55;16.20;99.90
53695;DHT22;39588;51.124;7.190;2023-05-10T09:05:21;16.20;99.90
53695;DHT22;39588;51.124;7.190;2023-05-10T09:07:46;16.30;99.90
53695;DHT22;39588;51.124;7.190;2023-05-10T09:10:13;16.50;99.90
53695;DHT22;39588;51.124;7.190;2023-05-10T09:12:41;16.80;99.90
53695;DHT22;39588;51.124;7.190;2023-05-10T09:15:07;16.70;99.90
53695;DHT22;39588;51.124;7.190;2023-05-10T09:17:34;16.50;99.90
53695;DHT22;39588;51.124;7.190;2023-05-10T09:20:02;16.30;99.90
53695;DHT22;39588;51.124;7.190;2023-05-10T09:22:30;16.20;99.90
53695;DHT22;39588;51.124;7.190;2023-05-10T09:25:10;16.00;99.90
53695;DHT22;39588;51.124;7.190;2023-05-10T09:27:40;16.00;99.90
53695;DHT22;39588;51.124;7.190;2023-05-10T09:30:07;15.40;99.90
53695;DHT22;39588;51.124;7.190;2023-05-10T09:32:40;15.00;99.90
53695;DHT22;39588;51.124;7.190;2023-05-10T09:35:11;14.80;99.90
53695;DHT22;39588;51.124;7.190;2023-05-10T09:37:39;14.60;99.90
53695;DHT22;39588;51.124;7.190;2023-05-10T09:40:07;14.70;99.90
53695;DHT22;39588;51.124;7.190;2023-05-10T09:42:34;14.90;99.90
53695;DHT22;39588;51.124;7.190;2023-05-10T09:45:04;14.90;99.90
53695;DHT22;39588;51.124;7.190;2023-05-10T09:47:32;15.70;99.90
53695;DHT22;39588;51.124;7.190;2023-05-10T09:49:58;16.20;99.90
53695;DHT22;39588;51.124;7.190;2023-05-10T09:52:29;16.20;99.90
53695;DHT22;39588;51.124;7.190;2023-05-10T09:54:55;16.50;99.90
53695;DHT22;39588;51.124;7.190;2023-05-10T09:57:22;16.50;99.90
53695;DHT22;39588;51.124;7.190;2023-05-10T09:59:48;16.20;99.90
53695;DHT22;39588;51.124;7.190;2023-05-10T10:02:16;16.10;99.90
53695;DHT22;39588;51.124;7.190;2023-05-10T10:04:41;15.40;99.90
53695;DHT22;39588;51.124;7.190;2023-05-10T10:07:07;15.00;99.90
53695;DHT22;39588;51.124;7.190;2023-05-10T10:09:34;14.80;99.90
53695;DHT22;39588;51.124;7.190;2023-05-10T10:12:01;14.60;99.90
53695;DHT22;39588;51.124;7.190;2023-05-10T10:14:28;14.40;99.90
53695;DHT22;39588;51.124;7.190;2023-05-10T10:16:54;14.20;99.90
53695;DHT22;39588;51.124;7.190;2023-05-10T10:19:21;14.20;99.90
53695;DHT22;39588;51.124;7.190;2023-05-10T10:21:50;14.20;99.90
53695;DHT22;39588;51.124;7.190;2023-05-10T10:24:16;14.20;99.90
53695;DHT22;39588;51.124;7.190;2023-05-10T10:26:42;14.10;99.90
53695;DHT22;39588;51.124;7.190;2023-05-10T10:29:20;14.00;99.90
53695;DHT22;39588;51.124;7.190;2023-05-10T10:34:31;14.10;99.90
53695;DHT22;39588;51.124;7.190;2023-05-10T10:36:57;14.20;99.90
53695;DHT22;39588;51.124;7.190;2023-05-10T10:39:26;14.30;99.90
53695;DHT22;39588;51.124;7.190;2023-05-10T10:41:54;14.50;99.90
53695;DHT22;39588;51.124;7.190;2023-05-10T10:50:01;15.00;99.90
53695;DHT22;39588;51.124;7.190;2023-05-10T10:52:30;15.20;99.90
53695;DHT22;39588;51.124;7.190;2023-05-10T10:57:50;15.40;99.90
53695;DHT22;39588;51.124;7.190;2023-05-10T11:00:31;16.00;99.90
53695;DHT22;39588;51.124;7.190;2023-05-10T11:03:10;16.20;99.90
53695;DHT22;39588;51.124;7.190;2023-05-10T11:05:39;16.10;99.90
53695;DHT22;39588;51.124;7.190;2023-05-10T11:08:17;16.40;99.90
53695;DHT22;39588;51.124;7.190;2023-05-10T11:13:28;16.70;99.90
53695;DHT22;39588;51.124;7.190;2023-05-10T11:15:54;16.60;99.90
53695;DHT22;39588;51.124;7.190;2023-05-10T11:18:31;16.50;99.90
53695;DHT22;39588;51.124;7.190;2023-05-10T11:21:01;16.50;99.90
53695;DHT22;39588;51.124;7.190;2023-05-10T11:26:09;16.00;99.90
53695;DHT22;39588;51.124;7.190;2023-05-10T11:28:41;15.80;99.90
53695;DHT22;39588;51.124;7.190;2023-05-10T11:31:07;15.80;99.90
53695;DHT22;39588;51.124;7.190;2023-05-10T11:33:46;15.80;99.90
53695;DHT22;39588;51.124;7.190;2023-05-10T11:36:16;15.90;99.90
53695;DHT22;39588;51.124;7.190;2023-05-10T11:38:43;15.90;99.90
53695;DHT22;39588;51.124;7.190;2023-05-10T11:41:09;16.10;99.90
53695;DHT22;39588;51.124;7.190;2023-05-10T11:43:37;16.20;99.90
53695;DHT22;39588;51.124;7.190;2023-05-10T11:46:08;16.40;99.90
53695;DHT22;39588;51.124;7.190;2023-05-10T11:48:35;16.60;99.90
53695;DHT22;39588;51.124;7.190;2023-05-10T11:51:01;17.20;99.90
53695;DHT22;39588;51.124;7.190;2023-05-10T11:53:29;17.40;99.90
53695;DHT22;39588;51.124;7.190;2023-05-10T11:55:55;17.10;99.90
53695;DHT22;39588;51.124;7.190;2023-05-10T11:58:21;17.10;99.90
53695;DHT22;39588;51.124;7.190;2023-05-10T12:00:48;16.30;99.90
53695;DHT22;39588;51.124;7.190;2023-05-10T12:03:15;16.10;99.90
53695;DHT22;39588;51.124;7.190;2023-05-10T12:05:43;16.10;99.90
53695;DHT22;39588;51.124;7.190;2023-05-10T12:08:15;16.10;99.90
53695;DHT22;39588;51.124;7.190;2023-05-10T12:10:45;16.30;99.90
53695;DHT22;39588;51.124;7.190;2023-05-10T12:13:11;16.70;99.90
53695;DHT22;39588;51.124;7.190;2023-05-10T12:15:38;16.90;99.90
53695;DHT22;39588;51.124;7.190;2023-05-10T12:18:04;16.90;99.90
53695;DHT22;39588;51.124;7.190;2023-05-10T12:20:30;16.60;99.90
53695;DHT22;39588;51.124;7.190;2023-05-10T12:22:58;16.30;99.90
53695;DHT22;39588;51.124;7.190;2023-05-10T12:25:47;16.00;99.90
53695;DHT22;39588;51.124;7.190;2023-05-10T12:28:12;15.80;99.90
53695;DHT22;39588;51.124;7.190;2023-05-10T12:30:38;15.70;99.90
53695;DHT22;39588;51.124;7.190;2023-05-10T12:33:09;15.70;99.90
53695;DHT22;39588;51.124;7.190;2023-05-10T12:35:50;15.80;99.90
53695;DHT22;39588;51.124;7.190;2023-05-10T12:38:43;16.10;99.90
53695;DHT22;39588;51.124;7.190;2023-05-10T12:41:11;16.20;99.90
53695;DHT22;39588;51.124;7.190;2023-05-10T12:43:38;16.40;99.90
53695;DHT22;39588;51.124;7.190;2023-05-10T12:46:16;16.70;99.80
53695;DHT22;39588;51.124;7.190;2023-05-10T12:48:43;16.60;99.90
53695;DHT22;39588;51.124;7.190;2023-05-10T12:51:13;16.70;99.90
53695;DHT22;39588;51.124;7.190;2023-05-10T12:53:40;16.50;99.90
53695;DHT22;39588;51.124;7.190;2023-05-10T12:58:32;16.10;99.90
53695;DHT22;39588;51.124;7.190;2023-05-10T13:00:59;16.00;99.90
53695;DHT22;39588;51.124;7.190;2023-05-10T13:03:24;16.00;99.90
53695;DHT22;39588;51.124;7.190;2023-05-10T13:05:50;16.30;99.90
53695;DHT22;39588;51.124;7.190;2023-05-10T13:08:16;16.80;99.90
53695;DHT22;39588;51.124;7.190;2023-05-10T13:10:41;17.10;99.90
53695;DHT22;39588;51.124;7.190;2023-05-10T13:13:07;17.30;99.90
53695;DHT22;39588;51.124;7.190;2023-05-10T13:15:33;17.70;99.90
53695;DHT22;39588;51.124;7.190;2023-05-10T13:17:59;17.90;99.30
53695;DHT22;39588;51.124;7.190;2023-05-10T13:20:25;18.00;99.40
53695;DHT22;39588;51.124;7.190;2023-05-10T13:22:51;18.00;98.40
53695;DHT22;39588;51.124;7.190;2023-05-10T13:25:16;17.70;98.30
53695;DHT22;39588;51.124;7.190;2023-05-10T13:27:42;17.40;98.00
53695;DHT22;39588;51.124;7.190;2023-05-10T13:30:08;17.20;98.90
53695;DHT22;39588;51.124;7.190;2023-05-10T13:32:34;17.30;99.60
53695;DHT22;39588;51.124;7.190;2023-05-10T13:35:00;17.60;99.60
53695;DHT22;39588;51.124;7.190;2023-05-10T13:37:26;18.00;98.70
53695;DHT22;39588;51.124;7.190;2023-05-10T13:42:17;17.80;97.70
53695;DHT22;39588;51.124;7.190;2023-05-10T13:47:09;17.20;98.30
53695;DHT22;39588;51.124;7.190;2023-05-10T13:49:35;17.10;99.00
53695;DHT22;39588;51.124;7.190;2023-05-10T13:52:01;16.90;98.70
53695;DHT22;39588;51.124;7.190;2023-05-10T13:54:38;16.70;98.80
53695;DHT22;39588;51.124;7.190;2023-05-10T13:59:31;16.60;99.70
53695;DHT22;39588;51.124;7.190;2023-05-10T14:02:00;16.70;99.60
53695;DHT22;39588;51.124;7.190;2023-05-10T14:04:28;16.80;99.20
53695;DHT22;39588;51.124;7.190;2023-05-10T14:06:54;16.70;99.00
53695;DHT22;39588;51.124;7.190;2023-05-10T14:09:20;16.60;98.90
53695;DHT22;39588;51.124;7.190;2023-05-10T14:16:43;17.10;99.10
53695;DHT22;39588;51.124;7.190;2023-05-10T14:19:10;17.40;99.00
53695;DHT22;39588;51.124;7.190;2023-05-10T14:21:35;17.50;98.10
53695;DHT22;39588;51.124;7.190;2023-05-10T14:24:05;17.60;98.20
53695;DHT22;39588;51.124;7.190;2023-05-10T14:26:32;17.60;98.40
53695;DHT22;39588;51.124;7.190;2023-05-10T14:28:59;17.40;97.10
53695;DHT22;39588;51.124;7.190;2023-05-10T14:31:25;17.30;97.70
53695;DHT22;39588;51.124;7.190;2023-05-10T14:33:52;17.30;97.20
53695;DHT22;39588;51.124;7.190;2023-05-10T14:36:18;17.30;97.50
53695;DHT22;39588;51.124;7.190;2023-05-10T14:38:44;17.30;98.30
53695;DHT22;39588;51.124;7.190;2023-05-10T14:43:39;17.70;97.20
53695;DHT22;39588;51.124;7.190;2023-05-10T14:46:05;18.00;97.90
53695;DHT22;39588;51.124;7.190;2023-05-10T14:48:30;18.10;97.90
53695;DHT22;39588;51.124;7.190;2023-05-10T14:53:22;18.10;97.60
53695;DHT22;39588;51.124;7.190;2023-05-10T14:55:48;18.00;97.70
53695;DHT22;39588;51.124;7.190;2023-05-10T14:58:13;17.90;96.50
53695;DHT22;39588;51.124;7.190;2023-05-10T15:00:40;17.70;96.60
53695;DHT22;39588;51.124;7.190;2023-05-10T15:07:58;17.20;97.70
53695;DHT22;39588;51.124;7.190;2023-05-10T15:10:23;17.40;97.30
53695;DHT22;39588;51.124;7.190;2023-05-10T15:12:50;17.20;97.40
53695;DHT22;39588;51.124;7.190;2023-05-10T15:15:15;17.20;97.00
53695;DHT22;39588;51.124;7.190;2023-05-10T15:17:41;17.10;97.80
53695;DHT22;39588;51.124;7.190;2023-05-10T15:20:07;17.00;97.50
53695;DHT22;39588;51.124;7.190;2023-05-10T15:22:33;16.90;98.20
53695;DHT22;39588;51.124;7.190;2023-05-10T15:27:25;16.60;98.30
53695;DHT22;39588;51.124;7.190;2023-05-10T15:29:51;16.50;98.60
53695;DHT22;39588;51.124;7.190;2023-05-10T15:32:17;16.30;98.80
53695;DHT22;39588;51.124;7.190;2023-05-10T15:34:42;16.10;98.50
53695;DHT22;39588;51.124;7.190;2023-05-10T15:37:08;16.20;99.20
53695;DHT22;39588;51.124;7.190;2023-05-10T15:39:34;16.40;99.00
53695;DHT22;39588;51.124;7.190;2023-05-10T15:41:59;16.60;99.20
53695;DHT22;39588;51.124;7.190;2023-05-10T15:44:26;16.90;98.90
53695;DHT22;39588;51.124;7.190;2023-05-10T15:46:52;17.00;98.50
53695;DHT22;39588;51.124;7.190;2023-05-10T15:59:02;17.50;97.20
53695;DHT22;39588;51.124;7.190;2023-05-10T16:01:28;17.70;97.90
53695;DHT22;39588;51.124;7.190;2023-05-10T16:06:21;17.80;96.90
53695;DHT22;39588;51.124;7.190;2023-05-10T16:08:46;17.60;97.00
53695;DHT22;39588;51.124;7.190;2023-05-10T16:11:12;17.30;96.90
53695;DHT22;39588;51.124;7.190;2023-05-10T16:18:33;17.10;97.30
53695;DHT22;39588;51.124;7.190;2023-05-10T16:23:26;16.80;97.90
53695;DHT22;39588;51.124;7.190;2023-05-10T16:25:52;16.70;98.20
53695;DHT22;39588;51.124;7.190;2023-05-10T16:28:18;16.60;98.40
53695;DHT22;39588;51.124;7.190;2023-05-10T16:30:45;16.50;98.80
53695;DHT22;39588;51.124;7.190;2023-05-10T16:33:12;16.50;98.90
53695;DHT22;39588;51.124;7.190;2023-05-10T16:35:38;16.40;98.70
53695;DHT22;39588;51.124;7.190;2023-05-10T16:38:04;16.30;98.60
53695;DHT22;39588;51.124;7.190;2023-05-10T16:40:31;16.30;98.60
53695;DHT22;39588;51.124;7.190;2023-05-10T16:42:57;16.20;98.80
53695;DHT22;39588;51.124;7.190;2023-05-10T16:47:50;16.30;99.50
53695;DHT22;39588;51.124;7.190;2023-05-10T16:50:17;16.30;99.80
53695;DHT22;39588;51.124;7.190;2023-05-10T16:55:09;16.40;99.90
53695;DHT22;39588;51.124;7.190;2023-05-10T16:57:35;16.40;99.90
53695;DHT22;39588;51.124;7.190;2023-05-10T17:00:09;16.30;99.90
53695;DHT22;39588;51.124;7.190;2023-05-10T17:02:36;16.30;99.90
53695;DHT22;39588;51.124;7.190;2023-05-10T17:12:20;16.00;99.90
53695;DHT22;39588;51.124;7.190;2023-05-10T17:24:30;15.60;99.90
53695;DHT22;39588;51.124;7.190;2023-05-10T17:26:57;15.50;99.90
53695;DHT22;39588;51.124;7.190;2023-05-10T17:29:25;15.40;99.90
53695;DHT22;39588;51.124;7.190;2023-05-10T17:34:17;15.30;99.90
53695;DHT22;39588;51.124;7.190;2023-05-10T18:08:22;14.60;99.90
53695;DHT22;39588;51.124;7.190;2023-05-10T18:13:17;13.80;99.90
53695;DHT22;39588;51.124;7.190;2023-05-10T18:15:43;13.80;99.90
53695;DHT22;39588;51.124;7.190;2023-05-10T18:18:08;13.70;99.90
53695;DHT22;39588;51.124;7.190;2023-05-10T18:25:27;13.70;99.90
53695;DHT22;39588;51.124;7.190;2023-05-10T18:27:53;13.60;99.90
53695;DHT22;39588;51.124;7.190;2023-05-10T18:30:19;13.60;99.90
53695;DHT22;39588;51.124;7.190;2023-05-10T18:37:37;13.40;99.90
53695;DHT22;39588;51.124;7.190;2023-05-10T18:40:06;13.30;99.90
53695;DHT22;39588;51.124;7.190;2023-05-10T18:42:38;13.20;99.90
53695;DHT22;39588;51.124;7.190;2023-05-10T18:45:04;13.20;99.90
53695;DHT22;39588;51.124;7.190;2023-05-10T18:47:30;13.20;99.90
53695;DHT22;39588;51.124;7.190;2023-05-10T18:49:56;13.10;99.90
53695;DHT22;39588;51.124;7.190;2023-05-10T18:54:53;13.20;99.90
53695;DHT22;39588;51.124;7.190;2023-05-10T18:59:50;13.20;99.90
53695;DHT22;39588;51.124;7.190;2023-05-10T19:02:16;13.20;99.90
53695;DHT22;39588;51.124;7.190;2023-05-10T19:19:18;13.30;99.90
53695;DHT22;39588;51.124;7.190;2023-05-10T19:33:55;13.30;99.90
53695;DHT22;39588;51.124;7.190;2023-05-10T19:41:13;13.30;99.90
53695;DHT22;39588;51.124;7.190;2023-05-10T19:46:06;13.20;99.90
53695;DHT22;39588;51.124;7.190;2023-05-10T19:51:00;13.20;99.90
53695;DHT22;39588;51.124;7.190;2023-05-10T19:53:26;13.20;99.90
53695;DHT22;39588;51.124;7.190;2023-05-10T19:55:53;13.20;99.90
53695;DHT22;39588;51.124;7.190;2023-05-10T19:58:19;13.20;99.90
53695;DHT22;39588;51.124;7.190;2023-05-10T20:10:29;13.20;99.90
53695;DHT22;39588;51.124;7.190;2023-05-10T20:17:51;13.20;99.90
53695;DHT22;39588;51.124;7.190;2023-05-10T20:20:18;13.20;99.90
53695;DHT22;39588;51.124;7.190;2023-05-10T20:22:44;13.20;99.90
53695;DHT22;39588;51.124;7.190;2023-05-10T20:25:11;13.20;99.90
53695;DHT22;39588;51.124;7.190;2023-05-10T20:27:37;13.20;99.90
53695;DHT22;39588;51.124;7.190;2023-05-10T20:30:03;13.10;99.90
53695;DHT22;39588;51.124;7.190;2023-05-10T20:32:30;13.10;99.90
53695;DHT22;39588;51.124;7.190;2023-05-10T20:34:55;13.10;99.90
53695;DHT22;39588;51.124;7.190;2023-05-10T20:37:22;13.10;99.90
53695;DHT22;39588;51.124;7.190;2023-05-10T20:39:47;13.10;99.90
53695;DHT22;39588;51.124;7.190;2023-05-10T20:42:13;13.00;99.90
53695;DHT22;39588;51.124;7.190;2023-05-10T20:44:39;13.00;99.90
53695;DHT22;39588;51.124;7.190;2023-05-10T20:56:49;13.00;99.90
53695;DHT22;39588;51.124;7.190;2023-05-10T20:59:16;13.00;99.90
53695;DHT22;39588;51.124;7.190;2023-05-10T21:01:42;12.90;99.90
53695;DHT22;39588;51.124;7.190;2023-05-10T21:04:08;13.00;99.90
53695;DHT22;39588;51.124;7.190;2023-05-10T21:06:34;13.00;99.90
53695;DHT22;39588;51.124;7.190;2023-05-10T21:11:25;13.00;99.90
53695;DHT22;39588;51.124;7.190;2023-05-10T21:26:05;12.90;99.90
53695;DHT22;39588;51.124;7.190;2023-05-10T21:28:30;12.90;99.90
53695;DHT22;39588;51.124;7.190;2023-05-10T21:43:06;12.90;99.90
53695;DHT22;39588;51.124;7.190;2023-05-10T21:52:53;12.60;99.90
53695;DHT22;39588;51.124;7.190;2023-05-10T21:55:19;12.60;99.90
53695;DHT22;39588;51.124;7.190;2023-05-10T21:57:45;12.60;99.90
53695;DHT22;39588;51.124;7.190;2023-05-10T22:00:11;12.70;99.90
53695;DHT22;39588;51.124;7.190;2023-05-10T22:02:38;12.60;99.90
53695;DHT22;39588;51.124;7.190;2023-05-10T22:07:31;12.60;99.90
53695;DHT22;39588;51.124;7.190;2023-05-10T22:09:57;12.60;99.90
53695;DHT22;39588;51.124;7.190;2023-05-10T22:12:23;12.70;99.90
53695;DHT22;39588;51.124;7.190;2023-05-10T22:14:48;12.60;99.90
53695;DHT22;39588;51.124;7.190;2023-05-10T22:17:14;12.60;99.90
53695;DHT22;39588;51.124;7.190;2023-05-10T22:19:40;12.70;99.90
53695;DHT22;39588;51.124;7.190;2023-05-10T22:26:57;12.60;99.90
53695;DHT22;39588;51.124;7.190;2023-05-10T22:31:49;12.60;99.90
53695;DHT22;39588;51.124;7.190;2023-05-10T22:34:15;12.70;99.90
53695;DHT22;39588;51.124;7.190;2023-05-10T22:36:40;12.70;99.90
53695;DHT22;39588;51.124;7.190;2023-05-10T22:41:32;12.70;99.90
53695;DHT22;39588;51.124;7.190;2023-05-10T22:44:00;12.60;99.90
53695;DHT22;39588;51.124;7.190;2023-05-10T22:48:54;12.60;99.90